Time;durP1;ratioP1;P1;durP2;ratioP2;P2;SDS_P1;SDS_P2;PMS_P1;PMS_P2;Temp;Humidity;BMP_temperature;BMP_pressure;BME280_temperature;BME280_humidity;BME280_pressure;Samples;Min_cycle;Max_cycle;Signal;HPM_P1;HPM_P2
2021/07/10 00:00:53;;;;;;;;;;;15.90;99.90;;;;;;5079922;28;19924;-50
2021/07/10 00:03:22;;;;;;;;;;;15.80;99.90;;;;;;5077709;28;19924;-49
2021/07/10 00:05:50;;;;;;;;;;;15.80;99.90;;;;;;5073673;28;20019;-46
2021/07/10 00:08:22;;;;;;;;;;;15.60;99.90;;;;;;5079593;28;19973;-52
2021/07/10 00:10:57;;;;;;;;;;;15.60;99.90;;;;;;5081676;28;20444;-50
2021/07/10 00:13:24;;;;;;;;;;;15.60;99.90;;;;;;5074330;28;19969;-50
2021/07/10 00:15:51;;;;;;;;;;;15.60;99.90;;;;;;5086631;28;19936;-49
2021/07/10 00:18:22;;;;;;;;;;;15.50;99.90;;;;;;5073818;28;19920;-47
2021/07/10 00:20:49;;;;;;;;;;;15.50;99.90;;;;;;5078976;28;19924;-54
2021/07/10 00:23:22;;;;;;;;;;;15.40;99.90;;;;;;5079606;28;19924;-51
2021/07/10 00:25:50;;;;;;;;;;;15.30;99.90;;;;;;5062891;28;19928;-48
2021/07/10 00:28:23;;;;;;;;;;;15.30;99.90;;;;;;5090194;28;20086;-49
2021/07/10 00:30:51;;;;;;;;;;;15.20;99.90;;;;;;5076126;28;20072;-49
2021/07/10 00:33:21;;;;;;;;;;;15.20;99.90;;;;;;5083951;28;19924;-47
2021/07/10 00:35:50;;;;;;;;;;;15.10;99.90;;;;;;5084683;28;19935;-51
2021/07/10 00:38:17;;;;;;;;;;;15.10;99.90;;;;;;5077370;28;20383;-48
2021/07/10 00:40:44;;;;;;;;;;;15.10;99.90;;;;;;5079387;28;19924;-47
2021/07/10 00:43:11;;;;;;;;;;;15.10;99.90;;;;;;5085644;28;20303;-48
2021/07/10 00:45:40;;;;;;;;;;;15.10;99.90;;;;;;5085677;28;19935;-51
2021/07/10 00:48:10;;;;;;;;;;;15.00;99.90;;;;;;5076327;28;20002;-50
2021/07/10 00:50:36;;;;;;;;;;;14.90;99.90;;;;;;5073937;28;19928;-48
2021/07/10 00:53:08;;;;;;;;;;;14.90;99.90;;;;;;5083713;28;19924;-50
2021/07/10 00:55:36;;;;;;;;;;;14.90;99.90;;;;;;5079753;28;20001;-48
2021/07/10 00:58:10;;;;;;;;;;;15.00;99.90;;;;;;5074713;28;20007;-51
2021/07/10 01:00:40;;;;;;;;;;;15.00;99.90;;;;;;5066612;28;19924;-49
2021/07/10 01:03:14;;;;;;;;;;;15.00;99.90;;;;;;5082684;28;19929;-50
2021/07/10 01:05:40;;;;;;;;;;;15.00;99.90;;;;;;5084481;28;20292;-52
2021/07/10 01:08:12;;;;;;;;;;;15.00;99.90;;;;;;5080468;28;19924;-52
2021/07/10 01:10:43;;;;;;;;;;;14.90;99.90;;;;;;5089764;28;19923;-53
2021/07/10 01:13:13;;;;;;;;;;;14.80;99.90;;;;;;5071238;28;20443;-50
2021/07/10 01:15:42;;;;;;;;;;;14.80;99.90;;;;;;5072483;28;20616;-51
2021/07/10 01:18:14;;;;;;;;;;;14.80;99.90;;;;;;5092553;28;20026;-52
2021/07/10 01:20:49;;;;;;;;;;;14.80;99.90;;;;;;5074249;28;19931;-48
2021/07/10 01:23:19;;;;;;;;;;;14.80;99.90;;;;;;5085974;28;19924;-49
2021/07/10 01:25:48;;;;;;;;;;;14.80;99.90;;;;;;5086414;28;19931;-51
2021/07/10 01:28:15;;;;;;;;;;;14.80;99.90;;;;;;5085319;28;20014;-54
2021/07/10 01:30:48;;;;;;;;;;;14.80;99.90;;;;;;5087326;28;20598;-49
2021/07/10 01:33:15;;;;;;;;;;;14.80;99.90;;;;;;5078523;28;19925;-50
2021/07/10 01:35:47;;;;;;;;;;;14.70;99.90;;;;;;5083517;28;20448;-48
2021/07/10 01:38:14;;;;;;;;;;;14.80;99.90;;;;;;5076068;28;20001;-50
2021/07/10 01:40:42;;;;;;;;;;;14.80;99.90;;;;;;5078568;28;20422;-53
2021/07/10 01:43:12;;;;;;;;;;;14.90;99.90;;;;;;5089331;28;20291;-52
2021/07/10 01:45:38;;;;;;;;;;;14.90;99.90;;;;;;5069628;28;19978;-52
2021/07/10 01:48:10;;;;;;;;;;;14.80;99.90;;;;;;5079942;28;20368;-52
2021/07/10 01:50:47;;;;;;;;;;;14.80;99.90;;;;;;5078685;28;19924;-48
2021/07/10 01:53:17;;;;;;;;;;;14.80;99.90;;;;;;5091601;28;20026;-50
2021/07/10 01:55:43;;;;;;;;;;;14.80;99.90;;;;;;5074620;28;20096;-48
2021/07/10 01:58:09;;;;;;;;;;;14.80;99.90;;;;;;5089733;28;19920;-49
2021/07/10 02:00:43;;;;;;;;;;;14.90;99.90;;;;;;5080568;28;19928;-51
2021/07/10 02:03:10;;;;;;;;;;;14.80;99.90;;;;;;5076804;28;19977;-48
2021/07/10 02:05:39;;;;;;;;;;;14.80;99.90;;;;;;5073069;28;19924;-50
2021/07/10 02:08:16;;;;;;;;;;;14.70;99.90;;;;;;5080670;28;19924;-50
2021/07/10 02:10:50;;;;;;;;;;;14.60;99.90;;;;;;5079970;28;19924;-50
2021/07/10 02:13:19;;;;;;;;;;;14.50;99.90;;;;;;5087953;28;19962;-48
2021/07/10 02:15:49;;;;;;;;;;;14.40;99.90;;;;;;5070493;28;20280;-49
2021/07/10 02:18:19;;;;;;;;;;;14.30;99.90;;;;;;5078051;28;19958;-48
2021/07/10 02:20:51;;;;;;;;;;;14.40;99.90;;;;;;5078352;28;20639;-47
2021/07/10 02:23:23;;;;;;;;;;;14.30;99.90;;;;;;5073050;28;20381;-47
2021/07/10 02:25:53;;;;;;;;;;;14.40;99.90;;;;;;5084814;28;19920;-48
2021/07/10 02:28:19;;;;;;;;;;;14.40;99.90;;;;;;5084358;28;20338;-51
2021/07/10 02:30:54;;;;;;;;;;;14.40;99.90;;;;;;5080306;28;19930;-50
2021/07/10 02:33:23;;;;;;;;;;;14.50;99.90;;;;;;5084693;28;19924;-50
2021/07/10 02:35:54;;;;;;;;;;;14.60;99.90;;;;;;5072303;28;19931;-52
2021/07/10 02:38:25;;;;;;;;;;;14.60;99.90;;;;;;5085251;28;19924;-53
2021/07/10 02:40:53;;;;;;;;;;;14.60;99.90;;;;;;5086952;28;20049;-47
2021/07/10 02:43:19;;;;;;;;;;;14.80;99.90;;;;;;5074897;28;19924;-49
2021/07/10 02:45:48;;;;;;;;;;;14.80;99.90;;;;;;5085297;28;19924;-52
2021/07/10 02:48:20;;;;;;;;;;;14.80;99.90;;;;;;5085231;28;19924;-49
2021/07/10 02:50:49;;;;;;;;;;;14.80;99.90;;;;;;5071999;28;20371;-49
2021/07/10 02:53:17;;;;;;;;;;;14.90;99.90;;;;;;5079602;28;19958;-47
2021/07/10 02:55:51;;;;;;;;;;;14.90;99.90;;;;;;5070464;28;19973;-48
2021/07/10 02:58:17;;;;;;;;;;;14.90;99.90;;;;;;5068041;28;19935;-51
2021/07/10 03:00:47;;;;;;;;;;;14.90;99.90;;;;;;5080686;28;20275;-48
2021/07/10 03:03:17;;;;;;;;;;;15.00;99.90;;;;;;5073946;28;19931;-48
2021/07/10 03:05:43;;;;;;;;;;;15.10;99.90;;;;;;5077395;28;20001;-47
2021/07/10 03:08:14;;;;;;;;;;;15.10;99.90;;;;;;5093326;28;20018;-48
2021/07/10 03:10:42;;;;;;;;;;;15.20;99.90;;;;;;5072511;28;19935;-51
2021/07/10 03:13:08;;;;;;;;;;;15.20;99.90;;;;;;5068683;28;20038;-48
2021/07/10 03:15:35;;;;;;;;;;;15.30;99.90;;;;;;5083078;28;19935;-47
2021/07/10 03:18:02;;;;;;;;;;;15.30;99.90;;;;;;5087731;28;20007;-54
2021/07/10 03:20:32;;;;;;;;;;;15.30;99.90;;;;;;5077424;28;20396;-53
2021/07/10 03:22:58;;;;;;;;;;;15.30;99.90;;;;;;5069236;28;19978;-51
2021/07/10 03:25:25;;;;;;;;;;;15.30;99.90;;;;;;5070458;28;19973;-47
2021/07/10 03:27:52;;;;;;;;;;;15.30;99.90;;;;;;5087632;28;19920;-48
2021/07/10 03:30:22;;;;;;;;;;;15.30;99.90;;;;;;5070926;28;19954;-52
2021/07/10 03:32:49;;;;;;;;;;;15.20;99.90;;;;;;5080536;28;20728;-49
2021/07/10 03:35:16;;;;;;;;;;;15.20;99.90;;;;;;5069009;28;19943;-52
2021/07/10 03:37:48;;;;;;;;;;;15.10;99.90;;;;;;5068552;28;19994;-50
2021/07/10 03:40:19;;;;;;;;;;;15.00;99.90;;;;;;5067853;28;19931;-52
2021/07/10 03:42:45;;;;;;;;;;;15.00;99.90;;;;;;5073839;28;19924;-50
2021/07/10 03:45:12;;;;;;;;;;;15.00;99.90;;;;;;5082562;28;20384;-49
2021/07/10 03:47:38;;;;;;;;;;;15.00;99.90;;;;;;5080768;28;19969;-53
2021/07/10 03:50:06;;;;;;;;;;;14.90;99.90;;;;;;5084447;28;19924;-49
2021/07/10 03:52:35;;;;;;;;;;;14.90;99.90;;;;;;5076288;28;19931;-49
2021/07/10 03:55:03;;;;;;;;;;;14.90;99.90;;;;;;5077682;28;20010;-49
2021/07/10 03:57:29;;;;;;;;;;;14.90;99.90;;;;;;5074494;28;19925;-50
2021/07/10 03:59:56;;;;;;;;;;;14.80;99.90;;;;;;5075670;28;20026;-47
2021/07/10 04:02:22;;;;;;;;;;;14.80;99.90;;;;;;5086076;28;20288;-50
2021/07/10 04:04:51;;;;;;;;;;;14.70;99.90;;;;;;5071719;28;20391;-52
2021/07/10 04:07:21;;;;;;;;;;;14.60;99.90;;;;;;5089804;28;19977;-49
2021/07/10 04:09:49;;;;;;;;;;;14.60;99.90;;;;;;5074832;28;20400;-54
2021/07/10 04:12:18;;;;;;;;;;;14.60;99.90;;;;;;5094515;28;20379;-48
2021/07/10 04:14:50;;;;;;;;;;;14.50;99.90;;;;;;5080365;28;19947;-56
2021/07/10 04:17:20;;;;;;;;;;;14.50;99.90;;;;;;5074349;28;19969;-50
2021/07/10 04:19:46;;;;;;;;;;;14.60;99.90;;;;;;5079435;28;20375;-47
2021/07/10 04:22:13;;;;;;;;;;;14.60;99.90;;;;;;5088977;28;20319;-47
2021/07/10 04:24:39;;;;;;;;;;;14.70;99.90;;;;;;5082281;28;19924;-51
2021/07/10 04:27:05;;;;;;;;;;;14.70;99.90;;;;;;5081919;28;19976;-50
2021/07/10 04:29:31;;;;;;;;;;;14.90;99.90;;;;;;5076645;28;19931;-47
2021/07/10 04:31:58;;;;;;;;;;;14.90;99.90;;;;;;5087293;28;20436;-49
2021/07/10 04:34:25;;;;;;;;;;;15.00;99.90;;;;;;5074746;28;19930;-51
2021/07/10 04:36:51;;;;;;;;;;;15.20;99.90;;;;;;5087091;28;20352;-48
2021/07/10 04:39:17;;;;;;;;;;;15.30;99.90;;;;;;5078489;28;20416;-49
2021/07/10 04:41:46;;;;;;;;;;;15.40;99.90;;;;;;5073589;28;19935;-48
2021/07/10 04:44:15;;;;;;;;;;;15.50;99.90;;;;;;5086337;28;19959;-48
2021/07/10 04:46:47;;;;;;;;;;;15.60;99.90;;;;;;5082931;28;19931;-48
2021/07/10 04:49:16;;;;;;;;;;;15.80;99.90;;;;;;5080482;28;19972;-51
2021/07/10 04:51:43;;;;;;;;;;;16.00;99.90;;;;;;5084954;28;19924;-54
2021/07/10 04:54:13;;;;;;;;;;;16.00;99.90;;;;;;5089663;28;19931;-52
2021/07/10 04:56:42;;;;;;;;;;;16.10;99.90;;;;;;5086547;28;20380;-51
2021/07/10 04:59:15;;;;;;;;;;;16.10;99.90;;;;;;5070029;28;19924;-60
2021/07/10 05:01:41;;;;;;;;;;;16.20;99.90;;;;;;5071153;28;19942;-50
2021/07/10 05:04:09;;;;;;;;;;;16.30;99.90;;;;;;5070892;28;19920;-49
2021/07/10 05:06:42;;;;;;;;;;;16.20;99.90;;;;;;5080478;28;19920;-49
2021/07/10 05:09:12;;;;;;;;;;;16.30;99.90;;;;;;5081759;28;19921;-54
2021/07/10 05:11:41;;;;;;;;;;;16.40;99.90;;;;;;5086143;28;20387;-56
2021/07/10 05:14:07;;;;;;;;;;;16.50;99.90;;;;;;5071834;28;19924;-57
2021/07/10 05:16:35;;;;;;;;;;;16.80;99.90;;;;;;5082187;28;19969;-57
2021/07/10 05:19:05;;;;;;;;;;;17.00;99.90;;;;;;5079134;28;19924;-58
2021/07/10 05:21:34;;;;;;;;;;;17.10;99.90;;;;;;5090269;28;19932;-55
2021/07/10 05:24:01;;;;;;;;;;;17.10;99.90;;;;;;5090400;28;20028;-57
2021/07/10 05:26:32;;;;;;;;;;;17.30;99.90;;;;;;5089777;28;19992;-52
2021/07/10 05:29:05;;;;;;;;;;;17.30;99.90;;;;;;5088545;28;19949;-57
2021/07/10 05:31:31;;;;;;;;;;;17.40;99.90;;;;;;5078718;28;19928;-54
2021/07/10 05:34:01;;;;;;;;;;;17.60;99.90;;;;;;5073937;28;19927;-54
2021/07/10 05:36:33;;;;;;;;;;;17.60;99.90;;;;;;5073818;28;19920;-57
2021/07/10 05:39:06;;;;;;;;;;;17.80;99.90;;;;;;5078822;28;19934;-55
2021/07/10 05:41:35;;;;;;;;;;;17.90;99.90;;;;;;5080249;28;19920;-55
2021/07/10 05:44:05;;;;;;;;;;;18.20;99.90;;;;;;5089484;28;19977;-51
2021/07/10 05:46:34;;;;;;;;;;;18.40;99.90;;;;;;5085001;28;20266;-55
2021/07/10 05:49:04;;;;;;;;;;;18.60;99.90;;;;;;5071442;28;20296;-56
2021/07/10 05:51:31;;;;;;;;;;;18.70;99.90;;;;;;5056881;28;20263;-56
2021/07/10 05:54:02;;;;;;;;;;;18.90;99.90;;;;;;5088713;28;19924;-54
2021/07/10 05:56:28;;;;;;;;;;;19.10;99.90;;;;;;5089659;28;19924;-54
2021/07/10 05:58:57;;;;;;;;;;;19.30;99.90;;;;;;5088938;28;19920;-55
2021/07/10 06:01:28;;;;;;;;;;;19.40;99.90;;;;;;5070280;28;19935;-57
2021/07/10 06:03:54;;;;;;;;;;;19.40;99.90;;;;;;5068663;28;19924;-55
2021/07/10 06:06:23;;;;;;;;;;;19.50;99.90;;;;;;5050515;28;19955;-58
2021/07/10 06:08:52;;;;;;;;;;;19.40;99.90;;;;;;5073589;28;19932;-51
2021/07/10 06:11:22;;;;;;;;;;;19.40;99.90;;;;;;5073972;28;19931;-57
2021/07/10 06:13:48;;;;;;;;;;;19.10;99.90;;;;;;5070157;28;20327;-55
2021/07/10 06:16:20;;;;;;;;;;;19.10;99.90;;;;;;5068678;28;20013;-55
2021/07/10 06:18:52;;;;;;;;;;;19.00;99.90;;;;;;5073762;28;19924;-54
2021/07/10 06:21:18;;;;;;;;;;;18.70;99.90;;;;;;5071389;28;20492;-57
2021/07/10 06:23:50;;;;;;;;;;;18.60;99.90;;;;;;5071694;28;19932;-54
2021/07/10 06:26:18;;;;;;;;;;;18.40;99.90;;;;;;5063190;28;19934;-53
2021/07/10 06:28:50;;;;;;;;;;;18.20;99.90;;;;;;5091409;28;19924;-55
2021/07/10 06:31:17;;;;;;;;;;;18.20;99.90;;;;;;5088191;28;19924;-56
2021/07/10 06:33:46;;;;;;;;;;;18.10;99.90;;;;;;5091262;28;19967;-56
2021/07/10 06:36:17;;;;;;;;;;;17.90;99.90;;;;;;5082636;28;20397;-57
2021/07/10 06:38:46;;;;;;;;;;;17.90;99.90;;;;;;5061101;28;20295;-56
2021/07/10 06:41:16;;;;;;;;;;;18.10;99.90;;;;;;5086277;28;19926;-55
2021/07/10 06:43:44;;;;;;;;;;;18.00;99.90;;;;;;5088637;28;19924;-58
2021/07/10 06:46:15;;;;;;;;;;;18.10;99.90;;;;;;5078539;28;19955;-57
2021/07/10 06:48:51;;;;;;;;;;;18.20;99.90;;;;;;5067993;28;19924;-56
2021/07/10 06:51:25;;;;;;;;;;;18.30;99.90;;;;;;5075416;28;20024;-56
2021/07/10 06:53:54;;;;;;;;;;;18.40;99.90;;;;;;5078862;28;19924;-54
2021/07/10 06:56:32;;;;;;;;;;;18.30;99.90;;;;;;5081140;28;19924;-59
2021/07/10 06:59:20;;;;;;;;;;;18.40;99.90;;;;;;5078163;28;20356;-59
2021/07/10 07:01:50;;;;;;;;;;;18.30;99.90;;;;;;5074376;28;19924;-57
2021/07/10 07:04:17;;;;;;;;;;;18.20;99.90;;;;;;5072262;28;20197;-56
2021/07/10 07:06:46;;;;;;;;;;;18.10;99.90;;;;;;5078009;28;19943;-54
2021/07/10 07:09:23;;;;;;;;;;;17.90;99.90;;;;;;5085898;28;19920;-53
2021/07/10 07:11:53;;;;;;;;;;;17.80;99.90;;;;;;5073378;28;19925;-54
2021/07/10 07:14:22;;;;;;;;;;;17.80;99.90;;;;;;5080904;28;19930;-56
2021/07/10 07:16:58;;;;;;;;;;;17.70;99.90;;;;;;5077629;28;19970;-55
2021/07/10 07:19:30;;;;;;;;;;;17.70;99.90;;;;;;5074376;28;20448;-53
2021/07/10 07:22:00;;;;;;;;;;;17.80;99.90;;;;;;5075534;28;20702;-54
2021/07/10 07:24:29;;;;;;;;;;;17.90;99.90;;;;;;5074793;28;19931;-56
2021/07/10 07:27:02;;;;;;;;;;;17.90;99.90;;;;;;5071500;28;19946;-54
2021/07/10 07:29:31;;;;;;;;;;;17.90;99.90;;;;;;5078389;28;19931;-52
2021/07/10 07:32:03;;;;;;;;;;;18.00;99.90;;;;;;5075886;28;19969;-55
2021/07/10 07:34:29;;;;;;;;;;;18.10;99.90;;;;;;5080153;28;20705;-60
2021/07/10 07:37:01;;;;;;;;;;;18.40;99.90;;;;;;5067344;28;19959;-54
2021/07/10 07:39:27;;;;;;;;;;;18.50;99.90;;;;;;5084632;28;20535;-57
2021/07/10 07:41:56;;;;;;;;;;;18.70;99.90;;;;;;5081662;28;19954;-57
2021/07/10 07:44:22;;;;;;;;;;;18.90;99.90;;;;;;5074234;28;20024;-57
2021/07/10 07:46:50;;;;;;;;;;;19.30;99.90;;;;;;5080144;28;19974;-56
2021/07/10 07:49:22;;;;;;;;;;;19.40;99.90;;;;;;5085436;28;20013;-58
2021/07/10 07:51:59;;;;;;;;;;;19.60;99.90;;;;;;5085330;28;19935;-57
2021/07/10 07:54:27;;;;;;;;;;;19.70;99.90;;;;;;5078398;28;19930;-58
2021/07/10 07:56:59;;;;;;;;;;;20.10;99.90;;;;;;5079022;28;19961;-57
2021/07/10 07:59:31;;;;;;;;;;;20.50;99.90;;;;;;5080856;28;20374;-52
2021/07/10 08:01:57;;;;;;;;;;;21.10;99.90;;;;;;5074928;28;19931;-57
2021/07/10 08:04:29;;;;;;;;;;;21.50;99.90;;;;;;5079253;28;19931;-57
2021/07/10 08:07:03;;;;;;;;;;;22.00;99.90;;;;;;5086521;28;19928;-56
2021/07/10 08:09:35;;;;;;;;;;;22.00;99.90;;;;;;5080143;28;20014;-58
2021/07/10 08:12:02;;;;;;;;;;;21.80;99.90;;;;;;5078833;28;19924;-54
2021/07/10 08:14:38;;;;;;;;;;;21.50;99.90;;;;;;5073395;28;20383;-58
2021/07/10 08:17:06;;;;;;;;;;;21.50;99.90;;;;;;5096705;28;19946;-58
2021/07/10 08:19:43;;;;;;;;;;;21.50;99.90;;;;;;5089849;28;20015;-59
2021/07/10 08:22:09;;;;;;;;;;;21.90;99.90;;;;;;5076557;28;20334;-58
2021/07/10 08:24:42;;;;;;;;;;;22.20;99.90;;;;;;5076481;28;19924;-58
2021/07/10 08:27:14;;;;;;;;;;;22.70;99.90;;;;;;5077907;28;19924;-58
2021/07/10 08:29:43;;;;;;;;;;;23.10;99.90;;;;;;5071818;28;19943;-58
2021/07/10 08:32:12;;;;;;;;;;;22.80;98.40;;;;;;5078209;28;19920;-58
2021/07/10 08:34:41;;;;;;;;;;;23.00;99.90;;;;;;5071539;28;19924;-58
2021/07/10 08:37:10;;;;;;;;;;;23.20;96.20;;;;;;5089903;28;19931;-58
2021/07/10 08:39:43;;;;;;;;;;;23.10;94.90;;;;;;5087053;28;19924;-58
2021/07/10 08:42:11;;;;;;;;;;;23.50;94.80;;;;;;5088369;28;19924;-58
2021/07/10 08:44:43;;;;;;;;;;;24.10;99.90;;;;;;5086844;28;19931;-58
2021/07/10 08:47:13;;;;;;;;;;;24.10;94.60;;;;;;5072968;28;19978;-59
2021/07/10 08:49:46;;;;;;;;;;;24.10;91.80;;;;;;5079269;28;19932;-58
2021/07/10 08:52:15;;;;;;;;;;;23.60;91.40;;;;;;5089314;28;19924;-58
2021/07/10 08:54:43;;;;;;;;;;;23.60;90.50;;;;;;5087454;28;20213;-58
2021/07/10 08:57:13;;;;;;;;;;;23.50;92.90;;;;;;5075899;28;19924;-57
2021/07/10 08:59:42;;;;;;;;;;;23.90;91.10;;;;;;5083488;28;19977;-58
2021/07/10 09:02:12;;;;;;;;;;;24.20;93.70;;;;;;5084016;28;19931;-60
2021/07/10 09:04:50;;;;;;;;;;;24.30;91.70;;;;;;5075996;28;19996;-60
2021/07/10 09:07:19;;;;;;;;;;;24.30;93.10;;;;;;5089758;28;19924;-59
2021/07/10 09:09:55;;;;;;;;;;;23.80;90.20;;;;;;5068096;28;20459;-57
2021/07/10 09:12:30;;;;;;;;;;;23.40;88.10;;;;;;5088317;28;19928;-55
2021/07/10 09:15:15;;;;;;;;;;;23.00;91.20;;;;;;5076137;28;19924;-53
2021/07/10 09:17:45;;;;;;;;;;;22.70;91.10;;;;;;5085548;28;19949;-58
2021/07/10 09:20:32;;;;;;;;;;;22.40;94.40;;;;;;5065970;28;19924;-58
2021/07/10 09:23:01;;;;;;;;;;;22.10;96.30;;;;;;5068012;28;20245;-58
2021/07/10 09:25:30;;;;;;;;;;;21.60;97.80;;;;;;5053243;28;19924;-58
2021/07/10 09:28:02;;;;;;;;;;;21.50;99.90;;;;;;5069110;28;19924;-58
2021/07/10 09:30:40;;;;;;;;;;;21.40;99.90;;;;;;5081984;28;19946;-58
2021/07/10 09:33:19;;;;;;;;;;;21.20;99.90;;;;;;5078744;28;20003;-58
2021/07/10 09:35:59;;;;;;;;;;;21.30;99.90;;;;;;5075592;28;19923;-56
2021/07/10 09:38:31;;;;;;;;;;;21.10;99.90;;;;;;5083985;28;20352;-58
2021/07/10 09:40:59;;;;;;;;;;;21.30;99.90;;;;;;5077768;28;19924;-57
2021/07/10 09:43:27;;;;;;;;;;;21.60;99.90;;;;;;5080332;28;20376;-57
2021/07/10 09:45:56;;;;;;;;;;;21.80;99.90;;;;;;5080768;28;19924;-58
2021/07/10 09:48:29;;;;;;;;;;;21.90;99.50;;;;;;5075914;28;19950;-58
2021/07/10 09:51:14;;;;;;;;;;;22.30;99.90;;;;;;5077719;28;19935;-58
2021/07/10 09:54:16;;;;;;;;;;;23.00;95.90;;;;;;5078704;28;19924;-60
2021/07/10 09:56:59;;;;;;;;;;;23.20;92.50;;;;;;5026252;28;19925;-59
2021/07/10 09:59:29;;;;;;;;;;;23.40;90.90;;;;;;5010708;28;19926;-58
2021/07/10 10:02:02;;;;;;;;;;;23.90;93.40;;;;;;5021634;28;19925;-59
2021/07/10 10:04:33;;;;;;;;;;;23.80;90.00;;;;;;5026014;28;19936;-58
2021/07/10 10:07:02;;;;;;;;;;;23.80;90.20;;;;;;5006191;28;19928;-58
2021/07/10 10:09:33;;;;;;;;;;;23.70;88.90;;;;;;4992305;28;19921;-58
2021/07/10 10:12:08;;;;;;;;;;;23.80;87.80;;;;;;5020513;28;19960;-58
2021/07/10 10:14:39;;;;;;;;;;;23.70;87.80;;;;;;5017589;28;19929;-58
2021/07/10 10:17:08;;;;;;;;;;;23.60;88.30;;;;;;5019606;28;19925;-58
2021/07/10 10:19:41;;;;;;;;;;;23.80;91.20;;;;;;5017716;28;19929;-58
2021/07/10 10:22:08;;;;;;;;;;;23.70;87.50;;;;;;5009407;28;19925;-58
2021/07/10 10:24:43;;;;;;;;;;;24.40;87.50;;;;;;5006764;28;19925;-58
2021/07/10 10:27:12;;;;;;;;;;;24.80;87.70;;;;;;4996268;28;19933;-58
2021/07/10 10:29:44;;;;;;;;;;;25.10;80.50;;;;;;5012780;28;20515;-60
2021/07/10 10:32:14;;;;;;;;;;;25.40;79.50;;;;;;5080703;28;19931;-59
2021/07/10 10:34:50;;;;;;;;;;;25.90;76.10;;;;;;5088095;28;19923;-58
2021/07/10 10:37:18;;;;;;;;;;;25.80;74.70;;;;;;5082911;28;19928;-59
2021/07/10 10:39:47;;;;;;;;;;;25.80;73.50;;;;;;5075520;28;19931;-59
2021/07/10 10:42:22;;;;;;;;;;;25.90;71.80;;;;;;5077354;28;20415;-59
2021/07/10 10:44:55;;;;;;;;;;;26.00;68.60;;;;;;5071116;28;19924;-60
2021/07/10 10:47:22;;;;;;;;;;;26.30;71.60;;;;;;5078902;28;20337;-58
2021/07/10 10:49:56;;;;;;;;;;;26.30;69.20;;;;;;5068765;28;19921;-59
2021/07/10 10:52:27;;;;;;;;;;;26.70;67.00;;;;;;5072696;28;19924;-59
2021/07/10 10:55:01;;;;;;;;;;;26.10;67.90;;;;;;5085700;28;19934;-58
2021/07/10 10:57:56;;;;;;;;;;;26.00;65.60;;;;;;5080091;28;20380;-56
2021/07/10 11:00:33;;;;;;;;;;;26.10;67.00;;;;;;5077645;28;19924;-59
2021/07/10 11:03:04;;;;;;;;;;;25.80;64.70;;;;;;5080361;28;19932;-58
2021/07/10 11:05:55;;;;;;;;;;;25.50;68.50;;;;;;5083973;28;19924;-58
2021/07/10 11:08:29;;;;;;;;;;;25.30;71.30;;;;;;5095526;28;19931;-59
2021/07/10 11:11:02;;;;;;;;;;;25.20;66.30;;;;;;5077291;28;19924;-59
2021/07/10 11:13:37;;;;;;;;;;;25.10;66.70;;;;;;5079758;28;20010;-58
2021/07/10 11:16:07;;;;;;;;;;;25.20;65.80;;;;;;5090661;28;19924;-58
2021/07/10 11:18:49;;;;;;;;;;;25.20;67.30;;;;;;5095215;28;19920;-59
2021/07/10 11:21:31;;;;;;;;;;;24.90;67.80;;;;;;5091913;28;19924;-60
2021/07/10 11:24:16;;;;;;;;;;;24.80;68.60;;;;;;5090996;28;20438;-59
2021/07/10 11:27:02;;;;;;;;;;;25.00;68.70;;;;;;5081166;28;20406;-59
2021/07/10 11:29:36;;;;;;;;;;;25.30;74.40;;;;;;5093193;28;20447;-58
2021/07/10 11:32:15;;;;;;;;;;;25.40;72.90;;;;;;5079187;28;19924;-59
2021/07/10 11:34:51;;;;;;;;;;;25.90;73.40;;;;;;5050470;28;20387;-57
2021/07/10 11:37:25;;;;;;;;;;;26.10;70.10;;;;;;5083762;28;19924;-54
2021/07/10 11:39:58;;;;;;;;;;;26.00;70.30;;;;;;5077066;28;20398;-56
2021/07/10 11:42:32;;;;;;;;;;;26.00;71.60;;;;;;5088656;28;20396;-58
2021/07/10 11:45:09;;;;;;;;;;;25.90;70.20;;;;;;5097401;28;19923;-57
2021/07/10 11:47:44;;;;;;;;;;;25.90;67.50;;;;;;5091343;28;19977;-59
2021/07/10 11:50:18;;;;;;;;;;;26.00;71.20;;;;;;5091456;28;19932;-57
2021/07/10 11:52:55;;;;;;;;;;;26.30;69.60;;;;;;5091575;28;20024;-57
2021/07/10 11:55:26;;;;;;;;;;;26.30;66.60;;;;;;5091422;28;19924;-55
2021/07/10 11:58:09;;;;;;;;;;;26.40;64.40;;;;;;5095853;28;19927;-58
2021/07/10 12:00:37;;;;;;;;;;;26.40;65.50;;;;;;5091528;28;19924;-61
2021/07/10 12:03:22;;;;;;;;;;;26.10;65.30;;;;;;5087721;28;19981;-59
2021/07/10 12:05:52;;;;;;;;;;;26.00;64.10;;;;;;5090690;28;20395;-60
2021/07/10 12:08:23;;;;;;;;;;;25.90;63.50;;;;;;5080110;28;20269;-57
2021/07/10 12:10:57;;;;;;;;;;;26.40;65.80;;;;;;5080106;28;19923;-57
2021/07/10 12:13:30;;;;;;;;;;;26.10;63.70;;;;;;5087151;28;20018;-58
2021/07/10 12:16:05;;;;;;;;;;;25.80;66.50;;;;;;5090446;28;20648;-55
2021/07/10 12:18:37;;;;;;;;;;;26.20;65.80;;;;;;5081402;28;19928;-54
2021/07/10 12:21:06;;;;;;;;;;;25.90;65.60;;;;;;5090617;28;20303;-59
2021/07/10 12:23:37;;;;;;;;;;;25.90;66.30;;;;;;5077894;28;20677;-56
2021/07/10 12:26:12;;;;;;;;;;;25.70;65.10;;;;;;5059001;28;20448;-59
2021/07/10 12:28:45;;;;;;;;;;;25.40;65.90;;;;;;5086530;28;20677;-57
2021/07/10 12:31:16;;;;;;;;;;;25.60;65.10;;;;;;5077539;28;19924;-62
2021/07/10 12:33:52;;;;;;;;;;;26.00;66.50;;;;;;5080195;28;20129;-57
2021/07/10 12:36:23;;;;;;;;;;;26.10;65.90;;;;;;5089678;28;19924;-57
2021/07/10 12:39:00;;;;;;;;;;;26.30;68.20;;;;;;5082526;28;20469;-54
2021/07/10 12:41:38;;;;;;;;;;;26.40;68.40;;;;;;5079709;28;20273;-56
2021/07/10 12:44:13;;;;;;;;;;;26.40;66.20;;;;;;5069838;28;20689;-55
2021/07/10 12:46:48;;;;;;;;;;;26.60;66.10;;;;;;5073957;28;20030;-56
2021/07/10 12:49:19;;;;;;;;;;;26.70;64.00;;;;;;5078188;28;20007;-59
2021/07/10 12:51:53;;;;;;;;;;;27.10;64.00;;;;;;5078880;28;19962;-52
2021/07/10 12:54:36;;;;;;;;;;;26.50;66.70;;;;;;5065689;28;19943;-53
2021/07/10 12:57:23;;;;;;;;;;;26.60;63.90;;;;;;5070945;28;20514;-57
2021/07/10 12:59:52;;;;;;;;;;;26.60;62.80;;;;;;5080421;28;19971;-54
2021/07/10 13:02:33;;;;;;;;;;;26.50;64.90;;;;;;5085936;28;19932;-59
2021/07/10 13:05:13;;;;;;;;;;;26.70;66.80;;;;;;5087365;28;19923;-59
2021/07/10 13:07:46;;;;;;;;;;;27.20;62.70;;;;;;5086549;28;20384;-56
2021/07/10 13:10:26;;;;;;;;;;;27.00;60.00;;;;;;5077422;28;19969;-54
2021/07/10 13:12:55;;;;;;;;;;;27.00;59.00;;;;;;5081717;28;19923;-58
2021/07/10 13:15:27;;;;;;;;;;;27.20;61.00;;;;;;5075891;28;19959;-56
2021/07/10 13:18:10;;;;;;;;;;;27.40;59.60;;;;;;5075493;28;19924;-57
2021/07/10 13:20:43;;;;;;;;;;;27.30;59.60;;;;;;5077449;28;19924;-55
2021/07/10 13:23:13;;;;;;;;;;;27.10;57.90;;;;;;5083340;28;19920;-58
2021/07/10 13:25:44;;;;;;;;;;;27.50;60.90;;;;;;5081262;28;19965;-57
2021/07/10 13:28:27;;;;;;;;;;;27.40;58.40;;;;;;5087140;28;20720;-57
2021/07/10 13:31:08;;;;;;;;;;;27.00;60.50;;;;;;5087572;28;19924;-58
2021/07/10 13:33:37;;;;;;;;;;;26.70;60.60;;;;;;5064659;28;19923;-58
2021/07/10 13:36:27;;;;;;;;;;;26.80;62.30;;;;;;5078889;28;19955;-55
2021/07/10 13:39:02;;;;;;;;;;;26.80;61.30;;;;;;5062695;28;19924;-58
2021/07/10 13:41:33;;;;;;;;;;;26.90;59.90;;;;;;5074827;28;19977;-57
2021/07/10 13:44:15;;;;;;;;;;;27.30;60.80;;;;;;5083885;28;20015;-52
2021/07/10 13:46:46;;;;;;;;;;;26.80;60.10;;;;;;5087597;28;19969;-56
2021/07/10 13:49:22;;;;;;;;;;;27.30;60.70;;;;;;5075842;28;20745;-55
2021/07/10 13:51:50;;;;;;;;;;;27.40;59.50;;;;;;5070282;28;20013;-56
2021/07/10 13:54:31;;;;;;;;;;;27.10;58.80;;;;;;5084536;28;20454;-59
2021/07/10 13:57:15;;;;;;;;;;;26.90;58.70;;;;;;5086522;28;19981;-49
2021/07/10 14:00:16;;;;;;;;;;;26.90;59.60;;;;;;5086150;28;20401;-58
2021/07/10 14:02:49;;;;;;;;;;;27.50;58.70;;;;;;5006140;28;19926;-54
2021/07/10 14:05:23;;;;;;;;;;;27.40;60.80;;;;;;4990897;28;20012;-57
2021/07/10 14:07:58;;;;;;;;;;;27.20;59.00;;;;;;4995990;28;19936;-54
2021/07/10 14:10:31;;;;;;;;;;;26.80;58.20;;;;;;4996453;28;19926;-51
2021/07/10 14:13:06;;;;;;;;;;;26.60;57.80;;;;;;4996526;28;19979;-54
2021/07/10 14:15:32;;;;;;;;;;;27.00;59.80;;;;;;5001030;28;20090;-51
2021/07/10 14:18:09;;;;;;;;;;;27.10;56.30;;;;;;4992786;28;19926;-55
2021/07/10 14:20:45;;;;;;;;;;;27.10;58.40;;;;;;4991407;28;19929;-53
2021/07/10 14:23:16;;;;;;;;;;;27.00;56.80;;;;;;5004979;28;19930;-51
2021/07/10 14:25:50;;;;;;;;;;;26.90;58.30;;;;;;5005764;28;20646;-52
2021/07/10 14:28:16;;;;;;;;;;;26.60;58.30;;;;;;5003193;28;20385;-53
2021/07/10 14:30:46;;;;;;;;;;;26.20;57.90;;;;;;5011757;28;19995;-51
2021/07/10 14:33:25;;;;;;;;;;;26.00;59.50;;;;;;5004261;28;19922;-50
2021/07/10 14:35:57;;;;;;;;;;;26.20;59.10;;;;;;4990515;28;19965;-52
2021/07/10 14:38:23;;;;;;;;;;;26.80;59.40;;;;;;5039204;28;20338;-50
2021/07/10 14:40:56;;;;;;;;;;;27.10;57.80;;;;;;5080820;28;20313;-58